Time;durP1;ratioP1;P1;durP2;ratioP2;P2;SDS_P1;SDS_P2;PMS_P1;PMS_P2;Temp;Humidity;BMP_temperature;BMP_pressure;BME280_temperature;BME280_humidity;BME280_pressure;Samples;Min_cycle;Max_cycle;Signal;HPM_P1;HPM_P2
2022/01/12 00:00:06;;;;;;;34.00;19.73;;;;;;;-2.13;100.00;103199.66;4994781;28;20732;-54
2022/01/12 00:02:32;;;;;;;38.53;20.30;;;;;;;-2.13;100.00;103198.00;5000584;28;20259;-53
2022/01/12 00:04:59;;;;;;;36.53;19.40;;;;;;;-2.07;100.00;103206.28;4990624;28;20270;-55
2022/01/12 00:07:25;;;;;;;33.07;20.47;;;;;;;-2.10;100.00;103200.84;5000688;28;20275;-56
2022/01/12 00:09:53;;;;;;;35.97;18.93;;;;;;;-2.08;100.00;103204.44;4994438;28;20965;-55
2022/01/12 00:12:19;;;;;;;35.30;18.67;;;;;;;-2.06;100.00;103197.78;5002027;28;20272;-54
2022/01/12 00:14:45;;;;;;;33.03;20.10;;;;;;;-2.08;100.00;103193.25;5009018;28;20302;-60
2022/01/12 00:17:12;;;;;;;34.20;19.30;;;;;;;-2.05;100.00;103180.66;5000261;28;20255;-57
2022/01/12 00:19:38;;;;;;;32.73;18.33;;;;;;;-2.03;100.00;103185.19;4998496;28;20829;-55
2022/01/12 00:22:04;;;;;;;36.40;20.40;;;;;;;-1.92;100.00;103187.03;4992386;28;20261;-56
2022/01/12 00:24:51;;;;;;;34.77;19.63;;;;;;;-1.82;100.00;103188.75;4993411;28;20802;-54
2022/01/12 00:35:32;;;;;;;34.00;19.10;;;;;;;-1.68;100.00;103174.53;5005671;28;20795;-55
2022/01/12 00:37:58;;;;;;;27.80;16.57;;;;;;;-1.58;100.00;103173.63;5003518;28;20307;-54
2022/01/12 00:40:24;;;;;;;29.10;19.20;;;;;;;-1.57;100.00;103183.19;4998422;28;20765;-55
2022/01/12 00:42:52;;;;;;;30.57;19.10;;;;;;;-1.70;100.00;103181.22;4998535;28;20212;-54
2022/01/12 00:45:20;;;;;;;36.80;20.90;;;;;;;-1.90;100.00;103178.53;4996414;28;20616;-54
2022/01/12 00:47:46;;;;;;;30.33;18.63;;;;;;;-1.77;100.00;103186.59;5000324;28;20270;-61
2022/01/12 00:50:12;;;;;;;33.17;19.90;;;;;;;-1.89;100.00;103185.50;5001682;28;20231;-57
2022/01/12 00:52:39;;;;;;;32.47;18.97;;;;;;;-1.82;100.00;103182.72;4999085;28;20231;-57
2022/01/12 00:55:06;;;;;;;33.63;19.03;;;;;;;-1.85;100.00;103190.16;4997159;28;20889;-55
2022/01/12 00:57:33;;;;;;;32.83;18.17;;;;;;;-1.92;100.00;103189.59;5001648;28;20254;-55
2022/01/12 01:00:00;;;;;;;34.13;18.47;;;;;;;-1.75;100.00;103190.22;4995205;28;20241;-55
2022/01/12 01:02:27;;;;;;;37.70;19.33;;;;;;;-1.64;100.00;103193.72;4994925;28;20232;-63
2022/01/12 01:04:53;;;;;;;34.53;19.07;;;;;;;-1.42;100.00;103191.34;4997881;28;20846;-56
2022/01/12 01:07:19;;;;;;;36.23;19.67;;;;;;;-1.48;100.00;103187.44;5005476;28;20740;-56
2022/01/12 01:09:55;;;;;;;31.70;18.07;;;;;;;-1.59;100.00;103180.47;4999336;28;20259;-56
2022/01/12 01:12:22;;;;;;;30.77;17.50;;;;;;;-1.60;100.00;103182.91;4995480;28;20314;-53
2022/01/12 01:15:01;;;;;;;32.37;18.80;;;;;;;-1.61;100.00;103179.44;5000831;28;20235;-54
2022/01/12 01:25:43;;;;;;;29.47;17.20;;;;;;;-1.65;100.00;103176.44;4999712;28;20297;-57
2022/01/12 01:28:11;;;;;;;30.97;18.20;;;;;;;-1.72;100.00;103183.66;4999420;28;20261;-54
2022/01/12 01:30:39;;;;;;;30.43;16.63;;;;;;;-1.72;100.00;103178.50;5004907;28;20254;-56
2022/01/12 01:33:09;;;;;;;30.70;16.73;;;;;;;-1.77;100.00;103178.84;4996969;28;20232;-54
2022/01/12 01:35:38;;;;;;;29.47;17.60;;;;;;;-1.72;100.00;103187.88;4997246;28;20767;-54
2022/01/12 01:38:05;;;;;;;30.13;17.97;;;;;;;-1.64;100.00;103189.47;4995425;28;20235;-55
2022/01/12 01:40:34;;;;;;;35.07;18.37;;;;;;;-1.62;100.00;103185.34;4995211;28;20229;-55
2022/01/12 01:43:14;;;;;;;28.87;17.20;;;;;;;-1.67;100.00;103190.88;5004768;28;20227;-53
2022/01/12 01:53:55;;;;;;;27.87;16.40;;;;;;;-1.75;100.00;103187.63;4993658;28;20279;-56
2022/01/12 01:56:22;;;;;;;31.70;16.23;;;;;;;-1.69;100.00;103191.63;4988735;28;20246;-55
2022/01/12 01:58:49;;;;;;;29.37;16.17;;;;;;;-1.78;100.00;103187.38;4999115;28;20688;-54
2022/01/12 02:01:15;;;;;;;32.17;16.67;;;;;;;-1.70;100.00;103194.09;5003715;28;20255;-55
2022/01/12 02:03:44;;;;;;;35.73;17.57;;;;;;;-1.69;100.00;103191.63;4993424;28;20236;-55
2022/01/12 02:06:11;;;;;;;32.00;17.17;;;;;;;-1.59;100.00;103193.34;4994907;28;20237;-56
2022/01/12 02:08:37;;;;;;;28.90;15.80;;;;;;;-1.76;100.00;103188.38;4994793;28;20253;-55
2022/01/12 02:11:04;;;;;;;37.90;18.67;;;;;;;-1.84;100.00;103185.13;4993801;28;20229;-55
2022/01/12 02:13:31;;;;;;;39.53;20.10;;;;;;;-1.89;100.00;103176.13;4996486;28;20294;-54
2022/01/12 02:15:58;;;;;;;36.20;18.50;;;;;;;-1.84;100.00;103179.09;4990578;28;20267;-56
2022/01/12 02:18:38;;;;;;;38.90;19.83;;;;;;;-1.83;100.00;103175.72;5000831;28;20239;-56
2022/01/12 02:35:22;;;;;;;33.13;18.03;;;;;;;-1.78;100.00;103174.50;4992404;28;20407;-56
2022/01/12 02:40:39;;;;;;;29.97;15.43;;;;;;;-1.83;100.00;103165.44;4999730;28;20242;-54
2022/01/12 02:43:12;;;;;;;31.90;16.63;;;;;;;-1.83;100.00;103168.91;4998577;28;20242;-56
2022/01/12 02:54:27;;;;;;;29.73;15.33;;;;;;;-1.82;100.00;103162.13;5010630;28;20306;-62
2022/01/12 02:56:53;;;;;;;30.77;16.13;;;;;;;-1.92;100.00;103173.25;5013180;28;20248;-57
2022/01/12 02:59:20;;;;;;;29.33;15.23;;;;;;;-1.77;100.00;103173.72;5011777;28;20239;-56
2022/01/12 03:04:48;;;;;;;31.40;16.80;;;;;;;-1.83;100.00;103168.00;4962028;28;20234;-57
2022/01/12 03:07:16;;;;;;;33.60;16.00;;;;;;;-1.81;100.00;103171.63;4993656;28;20646;-55
2022/01/12 03:09:44;;;;;;;39.37;18.63;;;;;;;-1.88;100.00;103171.88;4999597;28;20273;-54
2022/01/12 03:12:11;;;;;;;28.80;15.67;;;;;;;-1.80;100.00;103170.84;4996935;28;20240;-55
2022/01/12 03:14:37;;;;;;;33.93;17.20;;;;;;;-1.88;100.00;103156.41;5003197;28;20243;-56
2022/01/12 03:17:04;;;;;;;29.53;15.63;;;;;;;-1.80;100.00;103164.03;5005626;28;20319;-56
2022/01/12 03:19:31;;;;;;;36.13;18.57;;;;;;;-1.74;100.00;103155.97;4997264;28;20235;-56
2022/01/12 03:21:57;;;;;;;33.70;18.30;;;;;;;-1.65;100.00;103156.78;4995745;28;20229;-55
2022/01/12 03:24:23;;;;;;;27.93;16.07;;;;;;;-1.70;100.00;103152.88;5002795;28;20248;-55
2022/01/12 03:26:51;;;;;;;35.37;19.23;;;;;;;-1.77;100.00;103160.84;5001274;28;20889;-55
2022/01/12 03:29:17;;;;;;;34.50;17.17;;;;;;;-1.66;100.00;103164.34;5004214;28;20240;-58
2022/01/12 03:31:44;;;;;;;34.73;17.73;;;;;;;-1.72;100.00;103164.69;4999294;28;20239;-54
2022/01/12 03:34:22;;;;;;;32.23;16.17;;;;;;;-1.70;100.00;103153.78;4996159;28;20294;-55
2022/01/12 03:37:15;;;;;;;33.73;16.77;;;;;;;-1.73;100.00;103162.91;5008479;28;20317;-55
2022/01/12 03:39:40;;;;;;;41.10;17.23;;;;;;;-1.73;100.00;103155.19;4995179;28;20238;-56
2022/01/12 03:42:08;;;;;;;41.83;20.50;;;;;;;-1.82;100.00;103159.53;4999613;28;20335;-55
2022/01/12 03:44:35;;;;;;;35.60;18.57;;;;;;;-1.84;100.00;103158.50;5002144;28;20256;-56
2022/01/12 03:47:01;;;;;;;38.03;18.13;;;;;;;-1.80;100.00;103163.13;4999282;28;20249;-55
2022/01/12 03:49:28;;;;;;;35.43;17.87;;;;;;;-1.88;100.00;103166.72;5003218;28;20236;-56
2022/01/12 03:51:54;;;;;;;36.40;17.03;;;;;;;-1.83;100.00;103166.34;4999793;28;20288;-56
2022/01/12 03:54:21;;;;;;;39.13;18.90;;;;;;;-1.77;100.00;103165.97;4997075;28;20956;-54
2022/01/12 03:56:48;;;;;;;35.57;17.60;;;;;;;-1.66;100.00;103170.41;5002800;28;20231;-55
2022/01/12 03:59:15;;;;;;;42.33;19.03;;;;;;;-1.80;100.00;103165.72;4997699;28;20264;-55
2022/01/12 04:01:41;;;;;;;39.17;19.13;;;;;;;-1.72;100.00;103164.69;4997414;28;20269;-55
2022/01/12 04:04:16;;;;;;;37.03;17.10;;;;;;;-1.70;100.00;103166.66;4994780;28;20280;-55
2022/01/12 04:09:26;;;;;;;33.30;16.93;;;;;;;-1.60;100.00;103160.63;4997204;28;20258;-55
2022/01/12 04:11:52;;;;;;;42.50;19.33;;;;;;;-1.59;100.00;103162.44;4997592;28;20252;-56
2022/01/12 04:14:20;;;;;;;37.77;19.03;;;;;;;-1.62;100.00;103161.25;4998707;28;20904;-55
2022/01/12 04:16:46;;;;;;;42.67;20.63;;;;;;;-1.60;100.00;103159.75;5002236;28;20263;-55
2022/01/12 04:19:12;;;;;;;43.33;19.13;;;;;;;-1.61;100.00;103153.69;4994862;28;20293;-57
2022/01/12 04:21:45;;;;;;;39.63;18.70;;;;;;;-1.60;100.00;103159.75;4995374;28;20301;-55
2022/01/12 04:24:11;;;;;;;41.73;19.07;;;;;;;-1.56;100.00;103157.56;4989318;28;20327;-56
2022/01/12 04:26:37;;;;;;;35.93;17.17;;;;;;;-1.52;100.00;103149.31;5002833;28;20769;-55
2022/01/12 04:29:04;;;;;;;37.13;19.10;;;;;;;-1.47;100.00;103154.88;5004515;28;20308;-56
2022/01/12 04:31:32;;;;;;;41.87;20.90;;;;;;;-1.40;100.00;103151.16;4994329;28;20251;-55
2022/01/12 04:33:58;;;;;;;40.33;18.03;;;;;;;-1.45;100.00;103149.06;4997461;28;20236;-54
2022/01/12 04:36:25;;;;;;;39.13;18.67;;;;;;;-1.37;100.00;103165.22;5003318;28;20239;-53
2022/01/12 04:38:51;;;;;;;37.87;19.20;;;;;;;-1.32;100.00;103166.50;5011478;28;20227;-53
2022/01/12 04:41:17;;;;;;;38.23;19.07;;;;;;;-1.36;100.00;103161.88;5008099;28;20244;-55
2022/01/12 04:43:45;;;;;;;31.70;17.87;;;;;;;-1.33;100.00;103154.41;4998449;28;20235;-55
2022/01/12 04:46:25;;;;;;;34.80;16.93;;;;;;;-1.35;100.00;103155.94;5004623;28;20255;-54
2022/01/12 04:49:06;;;;;;;32.23;17.27;;;;;;;-1.34;100.00;103159.41;4991450;28;20232;-54
2022/01/12 04:51:34;;;;;;;40.00;19.00;;;;;;;-1.34;100.00;103160.31;5002590;28;20239;-56
2022/01/12 04:54:00;;;;;;;37.73;18.33;;;;;;;-1.32;100.00;103157.88;4999589;28;20229;-54
2022/01/12 04:56:28;;;;;;;38.60;19.07;;;;;;;-1.33;100.00;103164.72;5004363;28;20248;-55
2022/01/12 04:58:55;;;;;;;40.53;20.10;;;;;;;-1.38;100.00;103167.66;4999906;28;20242;-55
2022/01/12 05:01:25;;;;;;;49.37;23.13;;;;;;;-1.37;100.00;103169.44;4994853;28;20375;-56
2022/01/12 05:06:45;;;;;;;37.10;19.40;;;;;;;-1.29;100.00;103176.19;4992786;28;20238;-56
2022/01/12 05:09:28;;;;;;;41.23;20.10;;;;;;;-1.29;100.00;103173.59;4998744;28;20238;-55
2022/01/12 05:14:45;;;;;;;35.67;18.13;;;;;;;-1.18;100.00;103177.09;4999069;28;21589;-53
2022/01/12 05:17:11;;;;;;;34.87;18.63;;;;;;;-1.12;100.00;103178.53;5001968;28;20266;-55
2022/01/12 05:19:39;;;;;;;40.43;19.57;;;;;;;-1.26;100.00;103172.19;4993986;28;20255;-56
2022/01/12 05:22:05;;;;;;;37.27;18.97;;;;;;;-1.34;100.00;103172.28;5009741;28;20321;-54
2022/01/12 05:24:32;;;;;;;39.07;19.87;;;;;;;-1.34;100.00;103165.47;5001895;28;20327;-56
2022/01/12 05:26:59;;;;;;;39.67;20.47;;;;;;;-1.37;100.00;103165.22;4999851;28;20259;-57
2022/01/12 05:29:25;;;;;;;39.67;18.97;;;;;;;-1.29;100.00;103163.31;4998153;28;20393;-55
2022/01/12 05:31:51;;;;;;;36.90;18.53;;;;;;;-1.27;100.00;103167.78;5001487;28;21014;-56
2022/01/12 05:34:18;;;;;;;34.47;18.83;;;;;;;-1.30;100.00;103164.97;4997835;28;20243;-55
2022/01/12 05:36:45;;;;;;;36.07;20.03;;;;;;;-1.36;100.00;103176.44;5007451;28;20235;-54
2022/01/12 05:39:12;;;;;;;35.03;19.43;;;;;;;-1.31;100.00;103170.88;5007558;28;20259;-55
2022/01/12 05:41:38;;;;;;;35.30;19.33;;;;;;;-1.34;100.00;103159.41;4995572;28;20250;-55
2022/01/12 05:44:07;;;;;;;35.07;17.87;;;;;;;-1.31;100.00;103151.94;4993602;28;20659;-56
2022/01/12 05:46:33;;;;;;;35.80;18.20;;;;;;;-1.30;100.00;103149.53;5002014;28;20250;-56
2022/01/12 05:51:44;;;;;;;36.20;18.67;;;;;;;-1.32;100.00;103132.13;5002137;28;20251;-55
2022/01/12 05:54:12;;;;;;;37.60;19.30;;;;;;;-1.21;100.00;103131.34;5002053;28;20243;-56
2022/01/12 05:56:38;;;;;;;36.13;17.57;;;;;;;-1.23;100.00;103125.16;5001809;28;20323;-54
2022/01/12 05:59:05;;;;;;;36.97;19.13;;;;;;;-1.04;100.00;103119.91;4998426;28;20291;-55
2022/01/12 06:01:31;;;;;;;36.97;19.23;;;;;;;-1.12;100.00;103136.38;4994548;28;20656;-55
2022/01/12 06:03:58;;;;;;;32.73;17.20;;;;;;;-1.23;100.00;103138.03;4994197;28;20245;-56
2022/01/12 06:06:24;;;;;;;35.87;19.33;;;;;;;-1.21;100.00;103131.34;5001872;28;20240;-56
2022/01/12 06:08:50;;;;;;;38.57;19.43;;;;;;;-1.23;100.00;103138.03;4998146;28;20232;-53
2022/01/12 06:11:18;;;;;;;39.90;18.27;;;;;;;-1.24;100.00;103121.66;4992960;28;20260;-55
2022/01/12 06:13:44;;;;;;;34.63;16.50;;;;;;;-1.26;100.00;103123.25;5002950;28;20255;-56
2022/01/12 06:16:11;;;;;;;39.93;18.63;;;;;;;-1.25;100.00;103129.28;4997744;28;20731;-55
2022/01/12 06:18:37;;;;;;;38.13;17.57;;;;;;;-1.29;100.00;103129.81;4998856;28;20234;-55
2022/01/12 06:21:03;;;;;;;27.80;16.07;;;;;;;-1.23;100.00;103132.88;5001364;28;20229;-54
2022/01/12 06:23:30;;;;;;;34.97;16.87;;;;;;;-1.31;100.00;103134.81;5000592;28;20270;-55
2022/01/12 06:25:56;;;;;;;33.60;17.93;;;;;;;-1.26;100.00;103137.81;5006292;28;20237;-53
2022/01/12 06:28:37;;;;;;;33.20;16.80;;;;;;;-1.28;100.00;103134.19;4999741;28;20301;-55
2022/01/12 06:31:14;;;;;;;36.37;17.10;;;;;;;-1.16;100.00;103139.47;5000848;28;20252;-63
2022/01/12 06:33:42;;;;;;;34.00;18.30;;;;;;;-1.23;100.00;103138.03;5002018;28;20239;-56
2022/01/12 06:36:12;;;;;;;38.93;18.10;;;;;;;-1.26;100.00;103143.84;4996910;28;20581;-54
2022/01/12 06:38:38;;;;;;;34.03;18.07;;;;;;;-1.29;100.00;103148.75;5006936;28;20394;-57
2022/01/12 06:41:05;;;;;;;39.23;15.63;;;;;;;-1.26;100.00;103158.41;5004067;28;20236;-55
2022/01/12 06:43:33;;;;;;;37.43;18.23;;;;;;;-1.26;100.00;103159.31;4998064;28;20339;-53
2022/01/12 06:45:59;;;;;;;34.20;16.93;;;;;;;-1.22;100.00;103150.16;5004441;28;20950;-61
2022/01/12 06:48:25;;;;;;;34.07;18.27;;;;;;;-1.22;100.00;103150.16;5000932;28;20236;-55
2022/01/12 06:50:52;;;;;;;34.30;16.33;;;;;;;-1.23;100.00;103143.19;4999422;28;20290;-54
2022/01/12 06:53:18;;;;;;;29.63;16.90;;;;;;;-1.16;100.00;103144.63;5006736;28;20241;-55
2022/01/12 06:55:44;;;;;;;33.47;17.30;;;;;;;-1.17;100.00;103145.41;5006588;28;20265;-56
2022/01/12 06:58:11;;;;;;;28.83;16.30;;;;;;;-1.15;100.00;103151.59;5001302;28;20244;-55
2022/01/12 07:00:39;;;;;;;34.73;18.07;;;;;;;-1.15;100.00;103152.50;4997771;28;20243;-53
2022/01/12 07:03:06;;;;;;;30.00;18.27;;;;;;;-1.08;100.00;103156.50;5001525;28;20223;-53
2022/01/12 07:05:32;;;;;;;41.60;18.20;;;;;;;-1.09;100.00;103165.91;4992966;28;20318;-55
2022/01/12 07:07:58;;;;;;;31.23;16.60;;;;;;;-1.08;100.00;103165.13;4999890;28;20260;-55
2022/01/12 07:10:25;;;;;;;43.97;20.23;;;;;;;-1.02;100.00;103164.72;4997586;28;20243;-56
2022/01/12 07:12:51;;;;;;;40.27;17.60;;;;;;;-0.99;100.00;103168.47;5000266;28;20658;-56
2022/01/12 07:15:17;;;;;;;37.13;17.70;;;;;;;-1.02;100.00;103167.31;5000180;28;20235;-56
2022/01/12 07:17:45;;;;;;;38.10;18.57;;;;;;;-0.97;100.00;103169.53;5004657;28;20235;-54
2022/01/12 07:20:12;;;;;;;35.40;17.13;;;;;;;-0.96;100.00;103171.31;4987729;28;20240;-54
2022/01/12 07:22:38;;;;;;;36.27;17.13;;;;;;;-0.92;100.00;103161.28;5000639;28;20318;-56
2022/01/12 07:25:43;;;;;;;41.90;17.93;;;;;;;-0.94;100.00;103170.56;4990000;28;21002;-55
2022/01/12 07:28:09;;;;;;;35.63;18.37;;;;;;;-0.82;100.00;103176.75;4988979;28;20226;-55
2022/01/12 07:30:35;;;;;;;39.40;18.83;;;;;;;-0.91;100.00;103174.31;5000418;28;20314;-56
2022/01/12 07:33:03;;;;;;;36.23;18.33;;;;;;;-0.85;100.00;103179.06;4995582;28;20252;-55
2022/01/12 07:35:29;;;;;;;35.00;18.03;;;;;;;-0.88;100.00;103168.47;4986955;28;20256;-56
2022/01/12 07:37:56;;;;;;;40.93;18.20;;;;;;;-0.78;100.00;103164.22;4999380;28;20298;-57
2022/01/12 07:40:22;;;;;;;38.50;18.03;;;;;;;-0.76;100.00;103170.44;5001494;28;20239;-56
2022/01/12 07:42:49;;;;;;;40.87;18.90;;;;;;;-0.80;100.00;103172.63;5004703;28;20297;-56
2022/01/12 07:45:15;;;;;;;36.80;18.07;;;;;;;-0.84;100.00;103178.28;5011524;28;20588;-56
2022/01/12 07:47:42;;;;;;;34.03;18.20;;;;;;;-0.86;100.00;103179.84;5001372;28;20255;-55
2022/01/12 07:50:11;;;;;;;38.30;20.07;;;;;;;-0.72;100.00;103190.53;5003938;28;20258;-54
2022/01/12 07:52:37;;;;;;;36.30;19.20;;;;;;;-0.80;100.00;103188.09;4999841;28;20282;-55
2022/01/12 07:55:05;;;;;;;43.83;19.90;;;;;;;-0.79;100.00;103190.81;4996558;28;20621;-56
2022/01/12 07:57:31;;;;;;;40.17;18.93;;;;;;;-0.74;100.00;103193.75;5002619;28;20256;-55
2022/01/12 07:59:58;;;;;;;41.63;19.23;;;;;;;-0.68;100.00;103183.06;4998540;28;20253;-56
2022/01/12 08:02:24;;;;;;;37.03;19.37;;;;;;;-0.62;100.00;103179.31;5001727;28;20257;-55
2022/01/12 08:04:51;;;;;;;42.43;19.87;;;;;;;-0.62;100.00;103192.22;5000840;28;20795;-55
2022/01/12 08:07:19;;;;;;;47.50;20.87;;;;;;;-0.58;100.00;103190.81;5000105;28;20229;-55
2022/01/12 08:09:45;;;;;;;38.87;18.93;;;;;;;-0.53;100.00;103195.59;4995698;28;20287;-55
2022/01/12 08:12:12;;;;;;;41.77;21.70;;;;;;;-0.47;100.00;103205.50;5001741;28;20248;-56
2022/01/12 08:14:39;;;;;;;41.53;20.13;;;;;;;-0.46;100.00;103216.72;4992626;28;20259;-55
2022/01/12 08:17:05;;;;;;;36.23;18.30;;;;;;;-0.41;100.00;103216.34;4994895;28;20303;-52
2022/01/12 08:19:34;;;;;;;45.80;19.57;;;;;;;-0.29;100.00;103213.88;4998940;28;20225;-55
2022/01/12 08:22:01;;;;;;;39.97;18.13;;;;;;;-0.18;100.00;103209.59;4999507;28;20866;-55
2022/01/12 08:24:29;;;;;;;41.17;21.23;;;;;;;-0.16;100.00;103197.72;4999795;28;20253;-54
2022/01/12 08:26:55;;;;;;;46.13;19.37;;;;;;;-0.19;100.00;103211.28;4995117;28;20288;-54
2022/01/12 08:29:22;;;;;;;40.47;19.37;;;;;;;-0.07;100.00;103201.97;4999994;28;20266;-55
2022/01/12 08:31:49;;;;;;;33.53;17.80;;;;;;;-0.05;100.00;103200.38;5002283;28;20245;-57
2022/01/12 08:34:15;;;;;;;37.40;20.47;;;;;;;0.01;100.00;103196.53;5003010;28;20261;-56
2022/01/12 08:36:42;;;;;;;38.77;19.60;;;;;;;-0.01;100.00;103215.34;5002915;28;20697;-55
2022/01/12 08:39:09;;;;;;;38.30;19.03;;;;;;;0.00;100.00;103211.13;5003586;28;20285;-55
2022/01/12 08:41:37;;;;;;;44.97;20.63;;;;;;;-0.02;100.00;103218.72;5006189;28;20261;-58
2022/01/12 08:44:05;;;;;;;42.30;18.83;;;;;;;-0.01;100.00;103223.09;5000895;28;20230;-58
2022/01/12 08:46:31;;;;;;;49.07;26.33;;;;;;;-0.01;100.00;103222.19;4994338;28;20241;-55
2022/01/12 08:48:58;;;;;;;43.13;19.93;;;;;;;0.06;100.00;103219.34;4998443;28;20238;-55
2022/01/12 08:51:24;;;;;;;35.80;18.80;;;;;;;0.05;100.00;103219.22;4994209;28;20248;-54
2022/01/12 08:53:51;;;;;;;37.50;18.23;;;;;;;0.09;100.00;103213.53;4998776;28;20240;-54
2022/01/12 08:56:19;;;;;;;41.73;19.73;;;;;;;0.06;100.00;103214.19;5003839;28;20265;-53
2022/01/12 08:58:46;;;;;;;41.13;20.13;;;;;;;0.05;100.00;103219.22;5002692;28;20758;-55
2022/01/12 09:01:13;;;;;;;39.90;20.40;;;;;;;0.18;100.00;103210.03;5000390;28;20275;-59
2022/01/12 09:03:40;;;;;;;41.07;19.93;;;;;;;0.15;100.00;103214.03;5002808;28;20745;-55
2022/01/12 09:06:06;;;;;;;40.87;19.97;;;;;;;0.21;100.00;103219.69;5002072;28;20369;-56
2022/01/12 09:08:34;;;;;;;42.00;18.60;;;;;;;0.29;100.00;103215.16;4998925;28;20247;-55
2022/01/12 09:11:00;;;;;;;38.67;18.60;;;;;;;0.42;100.00;103220.50;5003523;28;20269;-56
2022/01/12 09:13:26;;;;;;;36.33;18.93;;;;;;;0.48;100.00;103214.16;5003636;28;20232;-54
2022/01/12 09:15:54;;;;;;;39.37;18.97;;;;;;;0.65;100.00;103217.19;5003390;28;20229;-57
2022/01/12 09:18:20;;;;;;;42.83;20.93;;;;;;;0.74;100.00;103223.09;5004092;28;20267;-55
2022/01/12 09:20:47;;;;;;;37.70;18.13;;;;;;;0.81;100.00;103225.38;4991106;28;20233;-55
2022/01/12 09:23:14;;;;;;;36.23;18.07;;;;;;;0.88;100.00;103221.59;4995856;28;20232;-55
2022/01/12 09:25:41;;;;;;;37.57;18.87;;;;;;;0.82;100.00;103213.34;5004072;28;20236;-58
2022/01/12 09:28:07;;;;;;;32.00;17.80;;;;;;;0.89;100.00;103211.34;4999314;28;20838;-57
2022/01/12 09:30:34;;;;;;;35.30;17.97;;;;;;;0.94;100.00;103207.44;4991873;28;20260;-54
2022/01/12 09:33:02;;;;;;;38.40;17.70;;;;;;;1.02;100.00;103213.22;5000101;28;20229;-55
2022/01/12 09:35:29;;;;;;;32.17;16.27;;;;;;;1.22;100.00;103213.84;5007356;28;20327;-55
2022/01/12 09:37:55;;;;;;;33.90;17.03;;;;;;;1.16;100.00;103209.13;4997923;28;20622;-56
2022/01/12 09:40:22;;;;;;;33.80;17.07;;;;;;;1.19;100.00;103204.16;4999557;28;20236;-56
2022/01/12 09:42:49;;;;;;;29.57;15.37;;;;;;;1.13;100.00;103203.69;4998647;28;20263;-55
2022/01/12 09:45:18;;;;;;;30.23;16.50;;;;;;;1.21;100.00;103204.28;4992104;28;20304;-55
2022/01/12 09:47:47;;;;;;;30.90;16.10;;;;;;;1.31;100.00;103207.69;4999980;28;21175;-57
2022/01/12 09:50:16;;;;;;;26.17;16.40;;;;;;;1.36;100.00;103201.16;5003025;28;20256;-55
2022/01/12 09:52:43;;;;;;;29.93;15.70;;;;;;;1.38;100.00;103202.19;5002074;28;20248;-54
2022/01/12 09:55:10;;;;;;;27.53;16.03;;;;;;;1.45;100.00;103192.31;5005417;28;20240;-55
2022/01/12 09:57:36;;;;;;;30.00;15.77;;;;;;;1.46;100.00;103194.09;4997676;28;20237;-57
2022/01/12 10:00:04;;;;;;;30.40;16.27;;;;;;;1.50;100.00;103189.28;4983487;28;20265;-56
2022/01/12 10:02:33;;;;;;;26.23;15.47;;;;;;;1.52;100.00;103182.53;4992077;28;20255;-55
2022/01/12 10:05:00;;;;;;;29.97;15.53;;;;;;;1.57;100.00;103177.69;4994841;28;20236;-59
2022/01/12 10:07:28;;;;;;;32.87;16.07;;;;;;;1.59;100.00;103181.31;4991872;28;20236;-56
2022/01/12 10:09:56;;;;;;;34.53;17.07;;;;;;;1.62;100.00;103186.72;4997541;28;20713;-55
2022/01/12 10:12:24;;;;;;;26.70;16.03;;;;;;;1.62;100.00;103173.78;5003462;28;20486;-56
2022/01/12 10:14:54;;;;;;;31.87;15.30;;;;;;;1.74;100.00;103182.44;5002728;28;20245;-56
2022/01/12 10:17:31;;;;;;;25.97;15.47;;;;;;;1.76;100.00;103180.88;4991578;28;20721;-55
2022/01/12 10:20:06;;;;;;;32.23;15.37;;;;;;;1.76;100.00;103175.69;4998673;28;20228;-56
2022/01/12 10:22:33;;;;;;;31.93;15.97;;;;;;;1.89;100.00;103178.38;4996724;28;20232;-56
2022/01/12 10:25:01;;;;;;;31.40;16.30;;;;;;;1.85;100.00;103166.00;5006230;28;20240;-56
2022/01/12 10:27:27;;;;;;;26.73;14.90;;;;;;;1.80;100.00;103163.88;5004692;28;20236;-55
2022/01/12 10:29:57;;;;;;;28.10;15.67;;;;;;;1.83;100.00;103161.53;5001327;28;20236;-56
2022/01/12 10:32:24;;;;;;;30.00;15.73;;;;;;;1.82;100.00;103165.78;4998239;28;20243;-55
2022/01/12 10:34:51;;;;;;;25.13;13.87;;;;;;;1.95;100.00;103174.47;5002500;28;20267;-57
2022/01/12 10:37:19;;;;;;;29.63;15.70;;;;;;;1.99;100.00;103173.88;5002046;28;20240;-56
2022/01/12 10:39:49;;;;;;;31.03;15.93;;;;;;;2.01;100.00;103167.16;4997212;28;20228;-57
2022/01/12 10:42:18;;;;;;;28.77;15.13;;;;;;;2.10;100.00;103167.78;5006491;28;20244;-57
2022/01/12 10:44:48;;;;;;;27.33;14.23;;;;;;;2.13;100.00;103165.44;4991187;28;20804;-56
2022/01/12 10:47:17;;;;;;;32.00;16.80;;;;;;;2.20;100.00;103156.41;5002510;28;20706;-56
2022/01/12 10:49:47;;;;;;;29.77;16.23;;;;;;;2.19;100.00;103152.91;5007656;28;20245;-56
2022/01/12 10:52:15;;;;;;;26.90;15.57;;;;;;;2.19;100.00;103155.50;5001641;28;20247;-56
2022/01/12 10:54:51;;;;;;;26.23;13.87;;;;;;;2.11;100.00;103167.03;5002606;28;20669;-56
2022/01/12 10:57:23;;;;;;;24.83;14.80;;;;;;;2.14;100.00;103160.38;5001982;28;20948;-56
2022/01/12 11:00:18;;;;;;;23.77;14.90;;;;;;;2.17;100.00;103164.84;5000907;28;20309;-56
2022/01/12 11:02:44;;;;;;;24.83;15.07;;;;;;;2.22;100.00;103160.91;4996185;28;20236;-57
2022/01/12 11:05:11;;;;;;;27.70;13.37;;;;;;;2.29;100.00;103168.34;5002893;28;20620;-57
2022/01/12 11:07:37;;;;;;;28.63;14.83;;;;;;;2.37;100.00;103174.97;4999672;28;20237;-55
2022/01/12 11:10:07;;;;;;;26.60;14.60;;;;;;;2.45;100.00;103172.03;4999581;28;20310;-55
2022/01/12 11:12:35;;;;;;;22.90;13.37;;;;;;;2.43;100.00;103174.50;5000617;28;20773;-57
2022/01/12 11:15:02;;;;;;;24.87;14.77;;;;;;;2.52;100.00;103179.44;4996636;28;20236;-57
2022/01/12 11:17:28;;;;;;;27.60;14.63;;;;;;;2.48;100.00;103180.03;5002341;28;20634;-56
2022/01/12 11:20:00;;;;;;;25.93;15.00;;;;;;;2.45;100.00;103172.03;5002605;28;20747;-56
2022/01/12 11:22:38;;;;;;;22.83;13.27;;;;;;;2.47;100.00;103167.84;4999183;28;20259;-55
2022/01/12 11:25:17;;;;;;;22.03;13.13;;;;;;;2.48;100.00;103156.69;4997404;28;20342;-55
2022/01/12 11:27:44;;;;;;;22.97;15.03;;;;;;;2.52;100.00;103161.28;4999531;28;20243;-56
2022/01/12 11:30:19;;;;;;;23.43;14.23;;;;;;;2.47;100.00;103160.97;4994699;28;20714;-54
2022/01/12 11:32:58;;;;;;;20.70;13.47;;;;;;;2.58;100.00;103164.31;5001701;28;20236;-55
2022/01/12 11:35:30;;;;;;;25.27;15.47;;;;;;;2.60;100.00;103178.31;4997942;28;20951;-56
2022/01/12 11:37:59;;;;;;;31.03;15.73;;;;;;;2.63;100.00;103178.50;5000084;28;20319;-56
2022/01/12 11:40:37;;;;;;;28.43;15.13;;;;;;;2.55;100.00;103169.28;5004572;28;20239;-55
2022/01/12 11:43:05;;;;;;;31.27;16.17;;;;;;;2.64;100.00;103164.75;4992525;28;20244;-55
2022/01/12 11:45:32;;;;;;;30.20;14.60;;;;;;;2.62;100.00;103166.34;4997408;28;20650;-55
2022/01/12 11:47:58;;;;;;;28.53;15.23;;;;;;;2.59;100.00;103163.53;4984586;28;20284;-56
2022/01/12 11:50:24;;;;;;;29.87;16.87;;;;;;;2.60;100.00;103167.94;4999797;28;20257;-56
2022/01/12 11:52:51;;;;;;;28.10;15.63;;;;;;;2.69;100.00;103167.66;4998463;28;20315;-57
2022/01/12 11:55:20;;;;;;;28.83;17.13;;;;;;;2.65;100.00;103171.75;4999022;28;20268;-56
2022/01/12 11:57:50;;;;;;;28.37;15.70;;;;;;;2.68;100.00;103187.53;4995400;28;20229;-57
2022/01/12 12:00:18;;;;;;;28.60;15.73;;;;;;;2.70;100.00;103180.72;4997539;28;20239;-55
2022/01/12 12:02:46;;;;;;;29.70;16.67;;;;;;;2.74;100.00;103171.47;5002348;28;20328;-56
2022/01/12 12:05:14;;;;;;;27.40;15.30;;;;;;;2.75;100.00;103176.78;4997095;28;20240;-55
2022/01/12 12:07:46;;;;;;;27.20;16.90;;;;;;;2.64;100.00;103175.13;5004302;28;20674;-55
2022/01/12 12:10:14;;;;;;;31.70;16.67;;;;;;;2.69;100.00;103165.06;5004004;28;20228;-55
2022/01/12 12:12:40;;;;;;;39.57;17.87;;;;;;;2.76;100.00;103163.00;5002250;28;20248;-56